Time;durP1;ratioP1;P1;durP2;ratioP2;P2;SDS_P1;SDS_P2;PMS_P1;PMS_P2;Temp;Humidity;BMP_temperature;BMP_pressure;BME280_temperature;BME280_humidity;BME280_pressure;Samples;Min_cycle;Max_cycle;Signal;HPM_P1;HPM_P2
2022/03/25 00:01:08;;;;;;;73.88;37.83;;;8.50;99.90;;;;;;5014164;28;20363;-62
2022/03/25 00:03:34;;;;;;;73.85;37.40;;;8.50;99.90;;;;;;5013749;28;20101;-63
2022/03/25 00:05:59;;;;;;;79.32;37.70;;;8.50;99.90;;;;;;5013146;28;20040;-62
2022/03/25 00:08:26;;;;;;;73.72;37.88;;;8.40;99.90;;;;;;5029672;28;20022;-63
2022/03/25 00:10:51;;;;;;;72.00;37.88;;;8.50;99.90;;;;;;5029134;28;20500;-62
2022/03/25 00:13:17;;;;;;;70.85;38.75;;;8.40;99.90;;;;;;5013509;28;20065;-63
2022/03/25 00:15:43;;;;;;;69.82;35.17;;;8.40;99.90;;;;;;5013623;28;20034;-62
2022/03/25 00:18:08;;;;;;;73.63;38.22;;;8.30;99.90;;;;;;5014026;28;20029;-63
2022/03/25 00:20:34;;;;;;;74.55;37.53;;;8.30;99.90;;;;;;5013708;28;20026;-62
2022/03/25 00:22:59;;;;;;;71.85;36.47;;;8.30;99.90;;;;;;5012162;28;20109;-63
2022/03/25 00:25:25;;;;;;;74.80;38.58;;;8.20;99.90;;;;;;5014071;28;20460;-63
2022/03/25 00:27:50;;;;;;;73.65;36.10;;;8.20;99.90;;;;;;5013241;28;20076;-63
2022/03/25 00:30:16;;;;;;;70.85;37.47;;;8.20;99.90;;;;;;5012991;28;20579;-62
2022/03/25 00:32:42;;;;;;;75.50;37.38;;;8.20;99.90;;;;;;5013872;28;20470;-63
2022/03/25 00:35:08;;;;;;;70.93;35.90;;;8.20;99.90;;;;;;5013882;28;20030;-62
2022/03/25 00:37:33;;;;;;;73.22;37.28;;;8.10;99.90;;;;;;5013378;28;20041;-63
2022/03/25 00:39:59;;;;;;;69.65;36.00;;;8.10;99.90;;;;;;5013914;28;20029;-63
2022/03/25 00:42:25;;;;;;;76.30;39.70;;;8.10;99.90;;;;;;5013594;28;20037;-62
2022/03/25 00:44:50;;;;;;;75.88;37.80;;;8.10;99.90;;;;;;5013470;28;20479;-62
2022/03/25 00:47:16;;;;;;;77.25;38.92;;;8.00;99.90;;;;;;5013252;28;20049;-63
2022/03/25 00:49:42;;;;;;;76.93;39.40;;;8.00;99.90;;;;;;5013896;28;20041;-63
2022/03/25 00:52:08;;;;;;;75.47;39.05;;;8.00;99.90;;;;;;5013908;28;20177;-63
2022/03/25 00:54:36;;;;;;;67.60;37.15;;;7.90;99.90;;;;;;5013355;28;20421;-62
2022/03/25 00:57:02;;;;;;;70.30;37.78;;;7.90;99.90;;;;;;5013202;28;20091;-62
2022/03/25 00:59:29;;;;;;;73.60;36.95;;;7.90;99.90;;;;;;5013690;28;20026;-63
2022/03/25 01:01:55;;;;;;;77.80;38.35;;;7.80;99.90;;;;;;5013384;28;20032;-63
2022/03/25 01:04:21;;;;;;;93.35;46.78;;;7.80;99.90;;;;;;5012022;28;20038;-62
2022/03/25 01:06:46;;;;;;;73.88;38.70;;;7.80;99.90;;;;;;5012876;28;20199;-62
2022/03/25 01:09:12;;;;;;;79.35;39.58;;;7.80;99.90;;;;;;5013461;28;20026;-63
2022/03/25 01:11:39;;;;;;;83.00;41.72;;;7.80;99.90;;;;;;5013079;28;20048;-62
2022/03/25 01:14:05;;;;;;;125.18;60.63;;;7.70;99.90;;;;;;5013231;28;20028;-63
2022/03/25 01:16:30;;;;;;;79.72;40.85;;;7.70;99.90;;;;;;5013263;28;20125;-63
2022/03/25 01:18:56;;;;;;;78.90;41.00;;;7.70;99.90;;;;;;5017204;28;20057;-63
2022/03/25 01:21:21;;;;;;;109.25;51.35;;;7.70;99.90;;;;;;5016908;28;20026;-62
2022/03/25 01:23:48;;;;;;;100.43;45.90;;;7.60;99.90;;;;;;5016902;28;20030;-62
2022/03/25 01:26:14;;;;;;;84.03;41.53;;;7.60;99.90;;;;;;5014930;28;20084;-62
2022/03/25 01:28:41;;;;;;;88.80;43.63;;;7.60;99.90;;;;;;5016296;28;20479;-62
2022/03/25 01:31:09;;;;;;;84.70;41.83;;;7.60;99.90;;;;;;5016782;28;20097;-63
2022/03/25 01:33:37;;;;;;;97.30;49.95;;;7.50;99.90;;;;;;5016655;28;20041;-62
2022/03/25 01:36:04;;;;;;;86.13;43.42;;;7.50;99.90;;;;;;5016278;28;20037;-62
2022/03/25 01:38:29;;;;;;;83.15;41.22;;;7.50;99.90;;;;;;5016624;28;20038;-63
2022/03/25 01:40:55;;;;;;;81.45;40.95;;;7.50;99.90;;;;;;5016589;28;20132;-62
2022/03/25 01:43:21;;;;;;;80.07;40.55;;;7.40;99.90;;;;;;5016689;28;20489;-63
2022/03/25 01:45:47;;;;;;;79.47;40.78;;;7.40;99.90;;;;;;5016572;28;20371;-63
2022/03/25 01:48:14;;;;;;;81.97;41.42;;;7.40;99.90;;;;;;5015173;28;20037;-62
2022/03/25 01:50:45;;;;;;;83.10;39.95;;;7.40;99.90;;;;;;5016784;28;20022;-62
2022/03/25 01:53:14;;;;;;;86.57;40.30;;;7.30;99.90;;;;;;5016836;28;20099;-64
2022/03/25 01:55:56;;;;;;;74.00;39.47;;;7.30;99.90;;;;;;5016367;28;20033;-63
2022/03/25 01:58:23;;;;;;;78.80;39.40;;;7.20;99.90;;;;;;5016154;28;20025;-63
2022/03/25 02:00:49;;;;;;;78.22;39.95;;;7.20;99.90;;;;;;5016834;28;20021;-63
2022/03/25 02:03:16;;;;;;;84.60;43.17;;;7.20;99.90;;;;;;5016394;28;20450;-63
2022/03/25 02:05:43;;;;;;;86.15;42.72;;;7.10;99.90;;;;;;5016176;28;20083;-62
2022/03/25 02:08:09;;;;;;;86.93;40.63;;;7.10;99.90;;;;;;5015771;28;20030;-63
2022/03/25 02:10:35;;;;;;;82.88;41.95;;;7.10;99.90;;;;;;5015801;28;20117;-63
2022/03/25 02:13:02;;;;;;;86.43;42.47;;;7.00;99.90;;;;;;5016163;28;20109;-62
2022/03/25 02:15:38;;;;;;;90.32;42.10;;;7.00;99.90;;;;;;5031212;28;20450;-63
2022/03/25 02:18:05;;;;;;;85.22;41.25;;;7.00;99.90;;;;;;5016168;28;20026;-62
2022/03/25 02:20:32;;;;;;;83.78;40.88;;;7.00;99.90;;;;;;5015852;28;20032;-62
2022/03/25 02:22:58;;;;;;;91.75;43.05;;;7.00;99.90;;;;;;5015035;28;20026;-63
2022/03/25 02:25:26;;;;;;;84.90;42.28;;;7.00;99.90;;;;;;5015545;28;20463;-62
2022/03/25 02:27:52;;;;;;;87.75;41.10;;;6.90;99.90;;;;;;5015891;28;20032;-62
2022/03/25 02:30:20;;;;;;;83.80;40.03;;;6.90;99.90;;;;;;5015085;28;20030;-63
2022/03/25 02:32:46;;;;;;;84.38;42.35;;;6.90;99.90;;;;;;5015847;28;20025;-62
2022/03/25 02:35:11;;;;;;;82.88;40.25;;;6.80;99.90;;;;;;5015577;28;20041;-63
2022/03/25 02:37:37;;;;;;;90.50;42.95;;;6.80;99.90;;;;;;5015533;28;20050;-62
2022/03/25 02:40:03;;;;;;;83.97;40.38;;;6.80;99.90;;;;;;5015853;28;20037;-63
2022/03/25 02:42:29;;;;;;;92.78;44.35;;;6.80;99.90;;;;;;5015529;28;20033;-63
2022/03/25 02:44:54;;;;;;;92.65;42.60;;;6.80;99.90;;;;;;5015211;28;20034;-63
2022/03/25 02:47:20;;;;;;;89.55;43.25;;;6.70;99.90;;;;;;5014841;28;20470;-62
2022/03/25 02:49:46;;;;;;;100.43;45.67;;;6.70;99.90;;;;;;5015188;28;20057;-63
2022/03/25 02:52:11;;;;;;;91.40;43.20;;;6.70;99.90;;;;;;5015234;28;20425;-63
2022/03/25 02:54:37;;;;;;;94.32;42.78;;;6.70;99.90;;;;;;5015046;28;20037;-62
2022/03/25 02:57:03;;;;;;;90.90;42.08;;;6.60;99.90;;;;;;5014904;28;20096;-63
2022/03/25 02:59:29;;;;;;;89.03;42.83;;;6.60;99.90;;;;;;5015378;28;20030;-62
2022/03/25 03:01:55;;;;;;;92.82;41.85;;;6.60;99.90;;;;;;5014964;28;20372;-63
2022/03/25 03:04:20;;;;;;;96.40;41.72;;;6.60;99.90;;;;;;5022500;28;20030;-62
2022/03/25 03:06:46;;;;;;;88.75;41.85;;;6.60;99.90;;;;;;5014873;28;20474;-63
2022/03/25 03:09:11;;;;;;;86.30;44.20;;;6.60;99.90;;;;;;5014918;28;20033;-62
2022/03/25 03:11:37;;;;;;;95.80;42.75;;;6.60;99.90;;;;;;5014732;28;20042;-63
2022/03/25 03:14:04;;;;;;;89.85;42.05;;;6.60;99.90;;;;;;5013651;28;20034;-63
2022/03/25 03:16:30;;;;;;;90.38;42.28;;;6.50;99.90;;;;;;5014665;28;20033;-62
2022/03/25 03:18:57;;;;;;;89.25;41.83;;;6.50;99.90;;;;;;5014947;28;20042;-63
2022/03/25 03:21:24;;;;;;;93.95;42.90;;;6.50;99.90;;;;;;5014837;28;20033;-63
2022/03/25 03:23:54;;;;;;;95.28;44.65;;;6.50;99.90;;;;;;5014923;28;20026;-63
2022/03/25 03:26:20;;;;;;;96.97;43.80;;;6.50;99.90;;;;;;5014155;28;20049;-62
2022/03/25 03:28:46;;;;;;;95.80;44.75;;;6.40;99.90;;;;;;5014642;28;20038;-62
2022/03/25 03:31:13;;;;;;;92.88;42.63;;;6.40;99.90;;;;;;5013840;28;20034;-63
2022/03/25 03:33:38;;;;;;;98.35;44.90;;;6.40;99.90;;;;;;5014559;28;20125;-63
2022/03/25 03:36:04;;;;;;;98.05;42.65;;;6.40;99.90;;;;;;5014631;28;20109;-62
2022/03/25 03:38:30;;;;;;;100.82;44.08;;;6.40;99.90;;;;;;5014694;28;20121;-63
2022/03/25 03:40:56;;;;;;;92.97;42.80;;;6.40;99.90;;;;;;5014189;28;20034;-63
2022/03/25 03:43:22;;;;;;;93.65;42.15;;;6.40;99.90;;;;;;5014358;28;20117;-63
2022/03/25 03:45:48;;;;;;;91.97;43.10;;;6.30;99.90;;;;;;5014032;28;20041;-63
2022/03/25 03:48:13;;;;;;;101.10;44.00;;;6.30;99.90;;;;;;5018487;28;20014;-63
2022/03/25 03:50:39;;;;;;;87.95;40.70;;;6.30;99.90;;;;;;5019514;28;20026;-64
2022/03/25 03:53:05;;;;;;;102.50;44.20;;;6.30;99.90;;;;;;5014323;28;20457;-63
2022/03/25 03:55:31;;;;;;;98.25;44.35;;;6.30;99.90;;;;;;5012831;28;20029;-64
2022/03/25 03:57:57;;;;;;;101.07;44.85;;;6.30;99.90;;;;;;5014136;28;20363;-62
2022/03/25 04:00:26;;;;;;;102.60;43.85;;;6.30;99.90;;;;;;5014161;28;20022;-63
2022/03/25 04:02:51;;;;;;;104.38;45.28;;;6.20;99.90;;;;;;5013837;28;20075;-62
2022/03/25 04:05:17;;;;;;;95.85;44.00;;;6.20;99.90;;;;;;5014155;28;20037;-63
2022/03/25 04:07:45;;;;;;;97.65;44.00;;;6.20;99.90;;;;;;5013809;28;20030;-64
2022/03/25 04:10:11;;;;;;;94.25;42.60;;;6.20;99.90;;;;;;5014041;28;20128;-63
2022/03/25 04:12:38;;;;;;;96.07;43.92;;;6.10;99.90;;;;;;5013176;28;20022;-63
2022/03/25 04:15:05;;;;;;;96.75;44.03;;;6.10;99.90;;;;;;5012202;28;20033;-64
2022/03/25 04:17:30;;;;;;;103.18;45.88;;;6.00;99.90;;;;;;5013318;28;20097;-64
2022/03/25 04:19:56;;;;;;;96.45;42.78;;;6.00;99.90;;;;;;5012920;28;20129;-63
2022/03/25 04:22:21;;;;;;;83.05;40.55;;;5.90;99.90;;;;;;5013848;28;20093;-64
2022/03/25 04:24:47;;;;;;;99.43;43.45;;;5.90;99.90;;;;;;5013285;28;20064;-64
2022/03/25 04:27:13;;;;;;;100.53;43.10;;;5.80;99.90;;;;;;5011873;28;20093;-63
2022/03/25 04:29:38;;;;;;;94.43;41.95;;;5.80;99.90;;;;;;5013276;28;20029;-63
2022/03/25 04:32:04;;;;;;;90.75;41.25;;;5.70;99.90;;;;;;5013605;28;20026;-64
2022/03/25 04:34:30;;;;;;;89.25;41.70;;;5.70;99.90;;;;;;5013325;28;20072;-62
2022/03/25 04:36:55;;;;;;;96.03;43.85;;;5.60;99.90;;;;;;5013262;28;20030;-64
2022/03/25 04:39:21;;;;;;;96.90;40.45;;;5.60;99.90;;;;;;5013560;28;20042;-63
2022/03/25 04:41:46;;;;;;;92.97;42.38;;;5.60;99.90;;;;;;5013172;28;20026;-64
2022/03/25 04:44:12;;;;;;;93.18;41.63;;;5.50;99.90;;;;;;5013773;28;20470;-63
2022/03/25 04:46:39;;;;;;;101.18;43.80;;;5.50;99.90;;;;;;5013275;28;20083;-63
2022/03/25 04:49:08;;;;;;;95.13;42.72;;;5.50;99.90;;;;;;5013833;28;20405;-64
2022/03/25 04:51:34;;;;;;;95.47;42.40;;;5.40;99.90;;;;;;5012950;28;20030;-63
2022/03/25 04:53:59;;;;;;;96.53;43.35;;;5.40;99.90;;;;;;5012985;28;20466;-63
2022/03/25 04:56:25;;;;;;;106.47;44.97;;;5.40;99.90;;;;;;5013019;28;20402;-63
2022/03/25 04:58:50;;;;;;;97.47;44.40;;;5.30;99.90;;;;;;5013134;28;20423;-63
2022/03/25 05:01:16;;;;;;;96.88;40.58;;;5.30;99.90;;;;;;5013164;28;20021;-63
2022/03/25 05:03:42;;;;;;;97.28;44.42;;;5.30;99.90;;;;;;5013332;28;20076;-63
2022/03/25 05:06:08;;;;;;;100.55;45.22;;;5.30;99.90;;;;;;5027239;28;20036;-64
2022/03/25 05:08:33;;;;;;;105.18;44.60;;;5.30;99.90;;;;;;5013856;28;20022;-63
2022/03/25 05:10:59;;;;;;;110.35;46.58;;;5.20;99.90;;;;;;5028440;28;20056;-64
2022/03/25 05:13:25;;;;;;;116.10;48.33;;;5.20;99.90;;;;;;5012754;28;20105;-64
2022/03/25 05:15:50;;;;;;;109.38;46.67;;;5.20;99.90;;;;;;5013061;28;20026;-63
2022/03/25 05:18:17;;;;;;;106.45;45.97;;;5.20;99.90;;;;;;5012488;28;20029;-64
2022/03/25 05:20:42;;;;;;;109.13;46.55;;;5.30;99.90;;;;;;5012770;28;20033;-63
2022/03/25 05:23:08;;;;;;;118.47;46.88;;;5.30;99.90;;;;;;5012546;28;20113;-66
2022/03/25 05:25:34;;;;;;;124.10;48.03;;;5.30;99.90;;;;;;5012845;28;20046;-62
2022/03/25 05:28:00;;;;;;;128.75;48.67;;;5.30;99.90;;;;;;5012876;28;20088;-66
2022/03/25 05:30:31;;;;;;;112.35;49.40;;;5.40;99.90;;;;;;5013278;28;20022;-64
2022/03/25 05:32:58;;;;;;;120.75;50.13;;;5.40;99.90;;;;;;5012980;28;20026;-65
2022/03/25 05:35:24;;;;;;;122.22;49.65;;;5.40;99.90;;;;;;5012675;28;20018;-65
2022/03/25 05:37:50;;;;;;;110.18;47.13;;;5.50;99.90;;;;;;5012717;28;20034;-66
2022/03/25 05:40:17;;;;;;;117.03;46.40;;;5.50;99.90;;;;;;5013313;28;20080;-65
2022/03/25 05:42:43;;;;;;;108.93;48.25;;;5.50;99.90;;;;;;5013416;28;20037;-65
2022/03/25 05:45:09;;;;;;;121.55;48.05;;;5.50;99.90;;;;;;5012470;28;20104;-65
2022/03/25 05:47:37;;;;;;;109.15;47.97;;;5.60;99.90;;;;;;5012478;28;20036;-66
2022/03/25 05:50:08;;;;;;;111.70;46.83;;;5.60;99.90;;;;;;5012608;28;20037;-63
2022/03/25 05:52:33;;;;;;;108.50;47.00;;;5.70;99.90;;;;;;5012151;28;20026;-63
2022/03/25 05:54:59;;;;;;;100.95;45.15;;;5.70;99.90;;;;;;5011891;28;20032;-63
2022/03/25 05:57:25;;;;;;;110.10;46.90;;;5.70;99.90;;;;;;5012622;28;20045;-64
2022/03/25 05:59:50;;;;;;;97.10;44.28;;;5.70;99.90;;;;;;5012873;28;20030;-63
2022/03/25 06:02:16;;;;;;;100.30;44.67;;;5.80;99.90;;;;;;5012578;28;20366;-63
2022/03/25 06:04:42;;;;;;;100.97;43.22;;;5.80;99.90;;;;;;5014713;28;20034;-63
2022/03/25 06:07:10;;;;;;;105.20;44.25;;;5.80;99.90;;;;;;5016120;28;20038;-66
2022/03/25 06:09:36;;;;;;;100.75;44.47;;;5.90;99.90;;;;;;5014844;28;20041;-66
2022/03/25 06:12:02;;;;;;;107.00;45.72;;;6.00;99.90;;;;;;5014540;28;20378;-64
2022/03/25 06:14:27;;;;;;;100.55;44.80;;;6.00;99.90;;;;;;5015444;28;20124;-67
2022/03/25 06:16:53;;;;;;;100.70;44.50;;;6.00;99.90;;;;;;5015528;28;20038;-64
2022/03/25 06:19:19;;;;;;;102.22;45.50;;;6.10;99.90;;;;;;5016154;28;20028;-65
2022/03/25 06:21:45;;;;;;;104.15;45.38;;;6.20;99.90;;;;;;5015808;28;20352;-66
2022/03/25 06:24:10;;;;;;;93.88;42.72;;;6.20;99.90;;;;;;5015441;28;20029;-67
2022/03/25 06:26:36;;;;;;;98.60;43.72;;;6.30;99.90;;;;;;5016372;28;20026;-67
2022/03/25 06:29:03;;;;;;;95.22;44.55;;;6.40;99.90;;;;;;5015837;28;20080;-66
2022/03/25 06:31:28;;;;;;;99.47;43.03;;;6.50;99.90;;;;;;5015556;28;20026;-64
2022/03/25 06:33:54;;;;;;;95.30;43.83;;;6.50;99.90;;;;;;5015184;28;20447;-66
2022/03/25 06:36:20;;;;;;;97.53;45.38;;;6.60;99.90;;;;;;5015504;28;20038;-66
2022/03/25 06:38:45;;;;;;;98.85;46.15;;;6.70;99.90;;;;;;5015277;28;20057;-63
2022/03/25 06:41:11;;;;;;;96.07;45.65;;;6.80;99.90;;;;;;5015296;28;20021;-65
2022/03/25 06:43:37;;;;;;;94.53;43.70;;;6.90;99.90;;;;;;5015315;28;20426;-66
2022/03/25 06:46:04;;;;;;;94.75;43.05;;;7.00;99.90;;;;;;5014367;28;20407;-65
2022/03/25 06:48:31;;;;;;;99.53;44.95;;;7.10;99.90;;;;;;5015458;28;20034;-64
2022/03/25 06:50:57;;;;;;;95.75;44.75;;;7.20;99.90;;;;;;5014957;28;20022;-65
2022/03/25 06:53:23;;;;;;;99.72;44.08;;;7.30;99.90;;;;;;5015139;28;20022;-65
2022/03/25 06:55:49;;;;;;;90.97;42.60;;;7.50;99.90;;;;;;5015349;28;20028;-66
2022/03/25 06:58:15;;;;;;;95.57;44.53;;;7.60;99.90;;;;;;5015252;28;20041;-66
2022/03/25 07:00:41;;;;;;;92.68;44.25;;;7.70;99.90;;;;;;5013169;28;20454;-62
2022/03/25 07:03:07;;;;;;;89.85;42.35;;;7.80;99.90;;;;;;5014184;28;20024;-66
2022/03/25 07:05:36;;;;;;;81.75;42.22;;;8.00;99.90;;;;;;5015209;28;20109;-65
2022/03/25 07:08:01;;;;;;;84.10;40.78;;;8.10;99.90;;;;;;5014583;28;20030;-64
2022/03/25 07:10:27;;;;;;;86.85;40.80;;;8.20;99.90;;;;;;5014874;28;20473;-66
2022/03/25 07:12:54;;;;;;;85.35;40.28;;;8.30;99.90;;;;;;5014881;28;20018;-66
2022/03/25 07:15:21;;;;;;;81.43;39.33;;;8.40;99.90;;;;;;5014537;28;20105;-62
2022/03/25 07:17:47;;;;;;;80.22;38.60;;;8.50;99.90;;;;;;5014662;28;20033;-66
2022/03/25 07:20:15;;;;;;;79.07;38.33;;;8.60;99.90;;;;;;5014676;28;20088;-65
2022/03/25 07:22:45;;;;;;;75.97;39.13;;;8.80;99.90;;;;;;5014858;28;20066;-62
2022/03/25 07:25:12;;;;;;;75.03;36.85;;;8.80;99.90;;;;;;5014587;28;20045;-65
2022/03/25 07:27:39;;;;;;;73.88;38.40;;;9.00;99.90;;;;;;5014910;28;20026;-64
2022/03/25 07:30:06;;;;;;;76.75;36.95;;;9.10;99.90;;;;;;5013991;28;20037;-67
2022/03/25 07:32:32;;;;;;;70.28;37.15;;;9.20;99.90;;;;;;5015389;28;20033;-66
2022/03/25 07:34:57;;;;;;;74.15;35.60;;;9.30;99.90;;;;;;5014675;28;20022;-63
2022/03/25 07:37:23;;;;;;;74.47;38.33;;;9.50;99.90;;;;;;5014526;28;20482;-66
2022/03/25 07:39:49;;;;;;;73.72;37.03;;;9.70;99.90;;;;;;5014386;28;20168;-65
2022/03/25 07:42:14;;;;;;;74.28;36.75;;;9.90;99.90;;;;;;5013983;28;20026;-64
2022/03/25 07:44:40;;;;;;;72.25;37.55;;;10.10;99.90;;;;;;5014245;28;20030;-65
2022/03/25 07:47:07;;;;;;;70.53;37.30;;;10.30;99.90;;;;;;5014422;28;20026;-68
2022/03/25 07:49:34;;;;;;;66.00;36.28;;;10.70;99.90;;;;;;5014053;28;20030;-66
2022/03/25 07:52:03;;;;;;;69.78;37.05;;;11.20;99.90;;;;;;5013957;28;20029;-63
2022/03/25 07:54:29;;;;;;;66.88;35.42;;;11.80;99.90;;;;;;5014098;28;20026;-66
2022/03/25 07:56:57;;;;;;;66.28;35.08;;;12.40;99.90;;;;;;5014031;28;20046;-64
2022/03/25 07:59:23;;;;;;;64.82;34.53;;;13.10;99.90;;;;;;5029330;28;20374;-64
2022/03/25 08:01:48;;;;;;;64.35;33.95;;;13.80;99.90;;;;;;5013436;28;20017;-66
2022/03/25 08:04:14;;;;;;;59.95;32.38;;;14.50;99.90;;;;;;5013633;28;20028;-66
2022/03/25 08:06:41;;;;;;;57.88;33.75;;;15.20;99.90;;;;;;5013999;28;20097;-68
2022/03/25 08:09:06;;;;;;;57.55;33.08;;;15.60;99.90;;;;;;5014311;28;20116;-66
2022/03/25 08:11:32;;;;;;;51.25;30.05;;;16.10;99.60;;;;;;5013771;28;20132;-64
2022/03/25 08:13:58;;;;;;;51.35;30.13;;;16.50;97.90;;;;;;5013771;28;20060;-65
2022/03/25 08:16:23;;;;;;;54.97;31.25;;;16.70;97.00;;;;;;5013557;28;20030;-66
2022/03/25 08:18:49;;;;;;;52.00;31.98;;;17.10;96.50;;;;;;5013454;28;20405;-65
2022/03/25 08:21:15;;;;;;;51.88;30.77;;;17.50;95.70;;;;;;5013593;28;20053;-64
2022/03/25 08:29:09;;;;;;;52.03;31.63;;;19.10;93.20;;;;;;5013455;28;20044;-63
2022/03/25 08:31:35;;;;;;;49.22;30.58;;;19.60;92.20;;;;;;5013224;28;20386;-62
2022/03/25 08:34:02;;;;;;;47.03;30.98;;;19.90;91.00;;;;;;5013847;28;20059;-64
2022/03/25 08:36:27;;;;;;;51.88;32.25;;;20.20;90.20;;;;;;5013811;28;20179;-64
2022/03/25 08:38:53;;;;;;;50.83;33.38;;;20.50;89.40;;;;;;5013856;28;20510;-66
2022/03/25 08:41:19;;;;;;;50.47;32.63;;;20.80;87.90;;;;;;5013146;28;20470;-66
2022/03/25 08:43:47;;;;;;;50.03;32.30;;;21.10;86.50;;;;;;5013156;28;20391;-62
2022/03/25 08:46:13;;;;;;;49.72;31.45;;;21.30;85.40;;;;;;5013541;28;20056;-63
2022/03/25 08:48:39;;;;;;;49.13;32.13;;;21.50;84.40;;;;;;5013134;28;20439;-65
2022/03/25 08:51:05;;;;;;;49.30;30.63;;;21.70;82.90;;;;;;5013976;28;20498;-66
2022/03/25 08:53:30;;;;;;;46.30;28.00;;;21.80;81.40;;;;;;5013211;28;20101;-63
2022/03/25 08:55:57;;;;;;;44.67;26.42;;;21.80;78.50;;;;;;5012931;28;20029;-64
2022/03/25 08:58:22;;;;;;;41.80;25.25;;;21.60;75.90;;;;;;5021905;28;20463;-61
2022/03/25 09:00:48;;;;;;;41.85;26.55;;;21.10;74.80;;;;;;5029702;28;20105;-67
2022/03/25 09:03:14;;;;;;;41.58;23.52;;;21.10;75.40;;;;;;5013650;28;20030;-66
2022/03/25 09:05:39;;;;;;;42.00;25.60;;;21.10;71.80;;;;;;5012883;28;20029;-66
2022/03/25 09:08:06;;;;;;;42.92;25.83;;;21.00;71.90;;;;;;5013506;28;20393;-67
2022/03/25 09:10:32;;;;;;;41.22;24.02;;;21.20;71.70;;;;;;5013496;28;20026;-63
2022/03/25 09:12:58;;;;;;;32.47;20.52;;;21.70;70.30;;;;;;5012523;28;20148;-66
2022/03/25 09:15:24;;;;;;;42.45;24.73;;;22.10;67.10;;;;;;5012729;28;20117;-65
2022/03/25 09:17:50;;;;;;;34.90;22.42;;;22.60;67.30;;;;;;5011061;28;20124;-64
2022/03/25 09:20:16;;;;;;;35.97;22.10;;;23.10;65.60;;;;;;5028136;28;20469;-63
2022/03/25 09:22:43;;;;;;;36.75;23.25;;;23.40;62.50;;;;;;5012628;28;20030;-67
2022/03/25 09:25:10;;;;;;;38.40;22.80;;;23.30;62.30;;;;;;5012723;28;20053;-63
2022/03/25 09:27:37;;;;;;;39.97;22.65;;;23.20;62.50;;;;;;5012633;28;20042;-64
2022/03/25 09:30:05;;;;;;;36.17;21.50;;;23.60;62.20;;;;;;5012811;28;20033;-63
2022/03/25 09:32:31;;;;;;;32.38;20.13;;;24.00;59.80;;;;;;5012127;28;20493;-65
2022/03/25 09:35:08;;;;;;;30.67;18.92;;;24.30;56.90;;;;;;5012429;28;20121;-66
2022/03/25 09:37:45;;;;;;;35.35;19.38;;;24.20;55.40;;;;;;5013183;28;20041;-66
2022/03/25 09:40:18;;;;;;;31.13;19.58;;;23.90;55.70;;;;;;5016041;28;20029;-64
2022/03/25 09:42:45;;;;;;;30.83;18.90;;;23.80;56.80;;;;;;5015431;28;20032;-67
2022/03/25 09:45:12;;;;;;;30.20;17.45;;;23.70;54.60;;;;;;5016664;28;20022;-65
2022/03/25 09:47:39;;;;;;;28.10;16.02;;;23.80;53.30;;;;;;5014924;28;20033;-63
2022/03/25 09:50:07;;;;;;;29.40;17.90;;;23.90;52.70;;;;;;5024687;28;20034;-63
2022/03/25 09:52:34;;;;;;;28.05;17.35;;;24.10;52.90;;;;;;5016317;28;20067;-64
2022/03/25 09:55:00;;;;;;;29.08;18.25;;;24.40;52.80;;;;;;5016066;28;20084;-62
2022/03/25 09:57:26;;;;;;;34.55;20.42;;;24.70;52.70;;;;;;5016409;28;20042;-63
2022/03/25 09:59:53;;;;;;;31.23;19.35;;;24.90;52.00;;;;;;5014827;28;20026;-63
2022/03/25 10:02:19;;;;;;;34.83;22.02;;;25.10;52.10;;;;;;5027755;28;20026;-63
2022/03/25 10:04:47;;;;;;;34.10;22.40;;;25.10;51.50;;;;;;5019809;28;20398;-63
2022/03/25 10:07:20;;;;;;;33.35;22.40;;;24.90;52.00;;;;;;5029532;28;20026;-62
2022/03/25 10:09:48;;;;;;;38.08;22.98;;;24.80;52.80;;;;;;5006572;28;20025;-63
2022/03/25 10:12:27;;;;;;;36.80;23.73;;;24.70;52.30;;;;;;5011944;28;20060;-63
2022/03/25 10:15:17;;;;;;;40.78;25.45;;;24.70;52.70;;;;;;5016616;28;20068;-63
2022/03/25 10:17:57;;;;;;;39.25;25.73;;;24.90;53.70;;;;;;5021706;28;20045;-63
2022/03/25 10:20:28;;;;;;;40.67;25.70;;;25.50;52.80;;;;;;5021208;28;20025;-63
2022/03/25 10:23:01;;;;;;;38.05;23.35;;;25.60;52.10;;;;;;5017544;28;20073;-62
2022/03/25 10:25:35;;;;;;;39.35;25.35;;;25.50;52.00;;;;;;5022759;28;20053;-63
2022/03/25 10:28:01;;;;;;;43.47;25.30;;;25.30;52.20;;;;;;5026614;28;20053;-63
2022/03/25 10:30:40;;;;;;;36.10;22.58;;;25.30;52.40;;;;;;5020424;28;20022;-63
2022/03/25 10:33:10;;;;;;;33.17;21.48;;;25.40;51.30;;;;;;5026021;28;20584;-63
2022/03/25 10:36:04;;;;;;;35.78;20.88;;;25.40;50.80;;;;;;5028804;28;20054;-64
2022/03/25 10:38:50;;;;;;;37.20;22.80;;;25.20;51.10;;;;;;5031243;28;20033;-64
2022/03/25 10:41:19;;;;;;;37.35;21.13;;;25.00;52.10;;;;;;5023813;28;20112;-63
2022/03/25 10:43:51;;;;;;;33.00;20.65;;;25.10;51.20;;;;;;5014516;28;20029;-64
2022/03/25 10:46:36;;;;;;;35.58;21.85;;;25.10;50.70;;;;;;5013468;28;20033;-66
2022/03/25 10:49:05;;;;;;;34.33;21.05;;;25.40;51.50;;;;;;5021162;28;20037;-65
2022/03/25 10:51:33;;;;;;;37.03;22.67;;;25.60;50.40;;;;;;5012569;28;20026;-66
2022/03/25 10:54:07;;;;;;;35.65;20.58;;;25.90;50.60;;;;;;5019469;28;20033;-67
2022/03/25 10:56:53;;;;;;;34.05;20.83;;;26.10;49.60;;;;;;5030805;28;20477;-66
2022/03/25 10:59:29;;;;;;;36.15;21.45;;;26.40;49.20;;;;;;5027226;28;20034;-65
2022/03/25 11:02:04;;;;;;;33.92;20.92;;;26.60;49.00;;;;;;5021221;28;20057;-67
2022/03/25 11:04:30;;;;;;;34.08;19.80;;;26.80;48.90;;;;;;5026724;28;20083;-67
2022/03/25 11:07:01;;;;;;;31.88;19.42;;;26.60;48.10;;;;;;5025582;28;20029;-63
2022/03/25 11:09:27;;;;;;;33.90;21.35;;;26.20;48.00;;;;;;5024533;28;20041;-62
2022/03/25 11:11:53;;;;;;;34.38;20.92;;;25.90;48.80;;;;;;5023527;28;20029;-62
2022/03/25 11:14:20;;;;;;;34.25;20.42;;;25.80;48.90;;;;;;5031070;28;20030;-63
2022/03/25 11:16:54;;;;;;;32.45;19.27;;;26.00;48.40;;;;;;5023756;28;20467;-62
2022/03/25 11:19:21;;;;;;;34.55;20.30;;;25.90;48.00;;;;;;5028834;28;20103;-64
2022/03/25 11:21:48;;;;;;;33.03;20.25;;;25.90;48.50;;;;;;5015053;28;20117;-62
2022/03/25 11:24:52;;;;;;;33.13;21.85;;;26.20;48.00;;;;;;5028617;28;20076;-62
2022/03/25 11:27:35;;;;;;;35.35;20.80;;;26.40;47.80;;;;;;5019024;28;20041;-63
2022/03/25 11:30:04;;;;;;;35.40;19.88;;;26.70;47.20;;;;;;5019306;28;20026;-62
2022/03/25 11:32:30;;;;;;;35.78;20.00;;;26.90;46.80;;;;;;5030597;28;20032;-62
2022/03/25 11:34:55;;;;;;;33.42;19.17;;;27.00;47.00;;;;;;5019748;28;20041;-62
2022/03/25 11:37:30;;;;;;;35.55;21.83;;;26.90;46.70;;;;;;5023547;28;20046;-62
2022/03/25 11:40:14;;;;;;;32.90;20.42;;;26.80;47.20;;;;;;5024872;28;20108;-62
2022/03/25 11:42:42;;;;;;;32.90;16.55;;;26.70;47.40;;;;;;5030567;28;20025;-62
2022/03/25 11:45:31;;;;;;;28.20;16.13;;;26.60;45.60;;;;;;5024232;28;20038;-63
2022/03/25 11:48:02;;;;;;;27.38;16.10;;;26.40;46.30;;;;;;5012807;28;20029;-63
2022/03/25 11:50:37;;;;;;;28.35;15.82;;;26.30;46.50;;;;;;5017545;28;20026;-62
2022/03/25 11:53:12;;;;;;;29.85;16.05;;;26.30;45.60;;;;;;5025643;28;20075;-63
2022/03/25 11:56:01;;;;;;;30.23;17.13;;;26.20;45.50;;;;;;5021405;28;20037;-62
2022/03/25 11:58:32;;;;;;;29.80;15.35;;;26.10;46.00;;;;;;5013748;28;20034;-63
2022/03/25 12:01:25;;;;;;;28.20;14.55;;;26.10;45.50;;;;;;5010183;28;20061;-63
2022/03/25 12:03:53;;;;;;;27.77;15.18;;;26.20;45.50;;;;;;5011855;28;20125;-63
2022/03/25 12:06:21;;;;;;;29.83;14.90;;;26.30;45.60;;;;;;5013408;28;20441;-63
2022/03/25 12:09:06;;;;;;;31.83;15.13;;;26.20;45.80;;;;;;5013969;28;20029;-63
2022/03/25 12:11:55;;;;;;;27.42;15.18;;;26.20;45.10;;;;;;5026342;28;20109;-64
2022/03/25 12:14:31;;;;;;;28.63;15.13;;;26.30;45.60;;;;;;5033337;28;20029;-65
2022/03/25 12:17:04;;;;;;;31.10;16.30;;;26.30;45.70;;;;;;5020209;28;20393;-66
2022/03/25 12:19:29;;;;;;;30.10;15.88;;;26.30;46.10;;;;;;5013755;28;20026;-64
2022/03/25 12:21:56;;;;;;;28.90;15.75;;;26.10;46.10;;;;;;5013762;28;20537;-63
2022/03/25 12:24:22;;;;;;;30.67;15.93;;;26.20;46.00;;;;;;5010330;28;20026;-63
2022/03/25 12:27:05;;;;;;;29.40;16.25;;;26.40;45.80;;;;;;5013222;28;20069;-66
2022/03/25 12:29:33;;;;;;;32.25;17.38;;;26.30;45.60;;;;;;5013054;28;20030;-66
2022/03/25 12:32:00;;;;;;;31.80;16.95;;;25.80;46.30;;;;;;5029092;28;20040;-65
2022/03/25 12:34:54;;;;;;;33.65;17.83;;;25.50;46.50;;;;;;5033171;28;20030;-65
2022/03/25 12:37:31;;;;;;;35.75;19.00;;;25.20;47.10;;;;;;5021070;28;20038;-66
2022/03/25 12:40:09;;;;;;;31.77;16.80;;;25.20;47.10;;;;;;5012801;28;20028;-64